Time;durP1;ratioP1;P1;durP2;ratioP2;P2;SDS_P1;SDS_P2;PMS_P1;PMS_P2;Temp;Humidity;BMP_temperature;BMP_pressure;BME280_temperature;BME280_humidity;BME280_pressure;Samples;Min_cycle;Max_cycle;Signal;HPM_P1;HPM_P2
2023/10/30 00:02:19;;;;;;;8.23;3.47;;;;;;;;;;6233949;28;20642;-67
2023/10/30 00:05:21;;;;;;;10.43;4.20;;;;;;;;;;6236916;28;20090;-67
2023/10/30 00:08:24;;;;;;;6.70;5.90;;;;;;;;;;6240245;28;20057;-69
2023/10/30 00:11:27;;;;;;;10.98;7.38;;;;;;;;;;6240314;28;20060;-67
2023/10/30 00:14:30;;;;;;;6.68;5.70;;;;;;;;;;6240433;28;20037;-67
2023/10/30 00:17:33;;;;;;;10.18;5.30;;;;;;;;;;6240529;28;20052;-66
2023/10/30 00:20:37;;;;;;;7.88;4.82;;;;;;;;;;6239973;28;20045;-68
2023/10/30 00:23:39;;;;;;;6.30;4.90;;;;;;;;;;6236831;28;20060;-68
2023/10/30 00:26:42;;;;;;;6.97;5.35;;;;;;;;;;6234302;28;20042;-68
2023/10/30 00:29:44;;;;;;;6.63;5.88;;;;;;;;;;6239801;28;20514;-67
2023/10/30 00:32:47;;;;;;;6.40;4.97;;;;;;;;;;6220193;28;20045;-67
2023/10/30 00:35:49;;;;;;;7.90;4.70;;;;;;;;;;6222177;28;20048;-68
2023/10/30 00:38:51;;;;;;;11.52;6.57;;;;;;;;;;6220457;28;20046;-66
2023/10/30 00:41:53;;;;;;;7.50;4.63;;;;;;;;;;6239430;28;20089;-66
2023/10/30 00:44:55;;;;;;;7.05;5.35;;;;;;;;;;6213529;28;20076;-68
2023/10/30 00:47:58;;;;;;;6.38;4.50;;;;;;;;;;6220984;28;20049;-67
2023/10/30 00:51:00;;;;;;;8.13;5.97;;;;;;;;;;6235440;28;20053;-66
2023/10/30 00:54:02;;;;;;;6.68;5.30;;;;;;;;;;6229640;28;20046;-68
2023/10/30 00:57:04;;;;;;;9.02;5.30;;;;;;;;;;6240041;28;20052;-67
2023/10/30 01:00:07;;;;;;;8.23;4.90;;;;;;;;;;6229833;28;20102;-66
2023/10/30 01:03:09;;;;;;;6.78;4.95;;;;;;;;;;6218177;28;20053;-68
2023/10/30 01:06:11;;;;;;;7.53;5.90;;;;;;;;;;6221070;28;20057;-68
2023/10/30 01:09:14;;;;;;;7.30;6.45;;;;;;;;;;6235548;28;20049;-68
2023/10/30 01:12:17;;;;;;;8.48;5.97;;;;;;;;;;6237878;28;20037;-68
2023/10/30 01:15:19;;;;;;;10.23;6.05;;;;;;;;;;6212550;28;20046;-66
2023/10/30 01:18:21;;;;;;;7.18;5.93;;;;;;;;;;6231571;28;20049;-67
2023/10/30 01:21:23;;;;;;;10.20;6.10;;;;;;;;;;6213576;28;20049;-67
2023/10/30 01:24:26;;;;;;;8.63;6.07;;;;;;;;;;6239361;28;20041;-68
2023/10/30 01:27:28;;;;;;;8.80;5.57;;;;;;;;;;6237236;28;20057;-68
2023/10/30 01:30:31;;;;;;;6.63;5.55;;;;;;;;;;6226231;28;20049;-68
2023/10/30 01:33:33;;;;;;;8.88;6.30;;;;;;;;;;6238068;28;20078;-68
2023/10/30 01:36:35;;;;;;;8.05;6.07;;;;;;;;;;6238706;28;20060;-68
2023/10/30 01:39:38;;;;;;;10.18;7.10;;;;;;;;;;6234865;28;20164;-67
2023/10/30 01:42:40;;;;;;;5.60;4.97;;;;;;;;;;6220153;28;20056;-68
2023/10/30 01:45:42;;;;;;;6.13;5.53;;;;;;;;;;6210376;28;20041;-66
2023/10/30 01:48:46;;;;;;;9.85;2.95;;;;;;;;;;6220194;28;20498;-68
2023/10/30 01:51:48;;;;;;;10.82;5.82;;;;;;;;;;6218485;28;20072;-67
2023/10/30 01:54:51;;;;;;;7.85;5.95;;;;;;;;;;6231642;28;20096;-66
2023/10/30 01:57:54;;;;;;;8.35;6.20;;;;;;;;;;6237819;28;20604;-68
2023/10/30 02:00:59;;;;;;;10.63;6.03;;;;;;;;;;6219794;28;20064;-68
2023/10/30 02:04:01;;;;;;;7.20;6.03;;;;;;;;;;6237755;28;20049;-67
2023/10/30 02:07:04;;;;;;;7.57;5.38;;;;;;;;;;6237232;28;20064;-67
2023/10/30 02:10:07;;;;;;;8.40;5.55;;;;;;;;;;6218366;28;20604;-67
2023/10/30 02:13:10;;;;;;;6.65;5.95;;;;;;;;;;6232636;28;20178;-67
2023/10/30 02:16:12;;;;;;;6.10;5.53;;;;;;;;;;6237031;28;20042;-67
2023/10/30 02:19:21;;;;;;;10.27;4.28;;;;;;;;;;6236471;28;20449;-67
2023/10/30 02:22:23;;;;;;;8.35;3.22;;;;;;;;;;6194838;28;20512;-67
2023/10/30 02:25:25;;;;;;;7.43;4.07;;;;;;;;;;6216858;28;20422;-67
2023/10/30 02:28:27;;;;;;;7.85;6.38;;;;;;;;;;6219087;28;20037;-67
2023/10/30 02:31:30;;;;;;;6.80;4.05;;;;;;;;;;6230292;28;20224;-68
2023/10/30 02:34:32;;;;;;;6.63;5.88;;;;;;;;;;6234707;28;20043;-66
2023/10/30 02:37:35;;;;;;;7.40;6.70;;;;;;;;;;6236509;28;20119;-67
2023/10/30 02:40:40;;;;;;;11.48;6.43;;;;;;;;;;6218679;28;20056;-67
2023/10/30 02:43:42;;;;;;;7.60;6.38;;;;;;;;;;6218639;28;20034;-66
2023/10/30 02:46:44;;;;;;;8.02;6.47;;;;;;;;;;6218588;28;20046;-67
2023/10/30 02:49:46;;;;;;;9.30;5.68;;;;;;;;;;6219184;28;20068;-66
2023/10/30 02:52:50;;;;;;;6.65;3.50;;;;;;;;;;6236615;28;20342;-67
2023/10/30 02:55:52;;;;;;;8.10;7.07;;;;;;;;;;6216693;28;20184;-67
2023/10/30 02:58:54;;;;;;;10.23;6.78;;;;;;;;;;6236102;28;20076;-68
2023/10/30 03:01:56;;;;;;;10.65;4.22;;;;;;;;;;6237124;28;20667;-67
2023/10/30 03:04:58;;;;;;;9.95;6.95;;;;;;;;;;6234377;28;20046;-67
2023/10/30 03:08:01;;;;;;;7.75;6.78;;;;;;;;;;6220642;28;20049;-68
2023/10/30 03:11:04;;;;;;;10.90;8.25;;;;;;;;;;6236483;28;20052;-66
2023/10/30 03:14:06;;;;;;;13.63;6.65;;;;;;;;;;6218872;28;20049;-67
2023/10/30 03:17:09;;;;;;;9.43;6.60;;;;;;;;;;6235967;28;20521;-66
2023/10/30 03:20:12;;;;;;;14.93;7.00;;;;;;;;;;6236381;28;20053;-66
2023/10/30 03:23:13;;;;;;;11.50;7.55;;;;;;;;;;6236726;28;20037;-67
2023/10/30 03:26:16;;;;;;;9.73;7.22;;;;;;;;;;6235166;28;20056;-68
2023/10/30 03:29:18;;;;;;;9.13;7.45;;;;;;;;;;6227569;28;20088;-66
2023/10/30 03:32:20;;;;;;;14.07;8.23;;;;;;;;;;6236840;28;20533;-67
2023/10/30 03:35:22;;;;;;;13.70;9.25;;;;;;;;;;6219779;28;20049;-66
2023/10/30 03:38:26;;;;;;;7.93;6.80;;;;;;;;;;6218526;28;20041;-67
2023/10/30 03:41:28;;;;;;;9.05;6.38;;;;;;;;;;6238938;28;20445;-66
2023/10/30 03:44:30;;;;;;;9.52;6.93;;;;;;;;;;6236848;28;20154;-67
2023/10/30 03:47:32;;;;;;;12.77;7.65;;;;;;;;;;6241852;28;20072;-67
2023/10/30 03:50:35;;;;;;;7.47;6.70;;;;;;;;;;6239603;28;20048;-67
2023/10/30 03:53:37;;;;;;;10.48;8.85;;;;;;;;;;6240408;28;20057;-68
2023/10/30 03:56:39;;;;;;;11.15;6.70;;;;;;;;;;6240671;28;20041;-67
2023/10/30 03:59:41;;;;;;;11.73;7.65;;;;;;;;;;6240417;28;20053;-67
2023/10/30 04:02:43;;;;;;;16.00;8.23;;;;;;;;;;6240487;28;20053;-68
2023/10/30 04:05:45;;;;;;;12.15;9.27;;;;;;;;;;6233336;28;20506;-68
2023/10/30 04:08:47;;;;;;;13.50;9.52;;;;;;;;;;6236156;28;20053;-67
2023/10/30 04:11:49;;;;;;;8.82;7.70;;;;;;;;;;6240206;28;20050;-67
2023/10/30 04:14:51;;;;;;;12.13;8.80;;;;;;;;;;6227249;28;20523;-67
2023/10/30 04:17:55;;;;;;;9.40;7.85;;;;;;;;;;6240214;28;20138;-67
2023/10/30 04:20:58;;;;;;;9.00;3.67;;;;;;;;;;6239878;28;20802;-67
2023/10/30 04:24:00;;;;;;;9.18;6.78;;;;;;;;;;6239221;28;20040;-67
2023/10/30 04:27:02;;;;;;;11.60;7.82;;;;;;;;;;6237610;28;20052;-67
2023/10/30 04:30:04;;;;;;;10.25;7.25;;;;;;;;;;6240630;28;20045;-67
2023/10/30 04:33:06;;;;;;;10.85;9.02;;;;;;;;;;6238570;28;20054;-67
2023/10/30 04:36:08;;;;;;;9.77;6.90;;;;;;;;;;6239703;28;20049;-68
2023/10/30 04:39:11;;;;;;;11.13;7.30;;;;;;;;;;6234610;28;20057;-67
2023/10/30 04:42:13;;;;;;;12.77;7.43;;;;;;;;;;6237573;28;20061;-67
2023/10/30 04:45:15;;;;;;;9.02;8.10;;;;;;;;;;6221320;28;20049;-67
2023/10/30 04:48:17;;;;;;;11.60;7.40;;;;;;;;;;6235789;28;20146;-68
2023/10/30 04:51:19;;;;;;;11.95;7.30;;;;;;;;;;6236390;28;20046;-68
2023/10/30 04:54:21;;;;;;;10.98;6.72;;;;;;;;;;6239125;28;20048;-68
2023/10/30 04:57:23;;;;;;;14.80;8.38;;;;;;;;;;6233948;28;20608;-68
2023/10/30 05:00:25;;;;;;;11.57;6.45;;;;;;;;;;6235753;28;20140;-67
2023/10/30 05:03:27;;;;;;;12.10;6.20;;;;;;;;;;6233350;28;20072;-67
2023/10/30 05:06:30;;;;;;;10.40;7.75;;;;;;;;;;6237075;28;20195;-67
2023/10/30 05:09:32;;;;;;;21.10;7.90;;;;;;;;;;6236329;28;20107;-67
2023/10/30 05:12:34;;;;;;;9.20;5.47;;;;;;;;;;6230561;28;21032;-67
2023/10/30 05:15:36;;;;;;;14.00;7.03;;;;;;;;;;6237177;28;20738;-68
2023/10/30 05:18:38;;;;;;;13.07;8.38;;;;;;;;;;6235981;28;20196;-67
2023/10/30 05:21:40;;;;;;;9.85;8.07;;;;;;;;;;6233814;28;20120;-70
2023/10/30 05:24:42;;;;;;;16.88;8.65;;;;;;;;;;6231719;28;20045;-60
2023/10/30 05:27:44;;;;;;;8.98;7.13;;;;;;;;;;6235343;28;20056;-61
2023/10/30 05:30:48;;;;;;;13.30;9.80;;;;;;;;;;6230643;28;20849;-60
2023/10/30 05:33:50;;;;;;;14.40;8.48;;;;;;;;;;6226218;28;20053;-60
2023/10/30 05:36:52;;;;;;;10.52;5.22;;;;;;;;;;6228378;28;20725;-60
2023/10/30 05:39:54;;;;;;;15.88;8.13;;;;;;;;;;6227271;28;20037;-63
2023/10/30 05:42:56;;;;;;;13.32;8.35;;;;;;;;;;6225288;28;20132;-60
2023/10/30 05:45:58;;;;;;;8.63;7.03;;;;;;;;;;6232864;28;20478;-60
2023/10/30 05:49:00;;;;;;;12.68;10.18;;;;;;;;;;6234482;28;20801;-60
2023/10/30 05:52:02;;;;;;;11.23;7.65;;;;;;;;;;6230137;28;20045;-61
2023/10/30 05:55:05;;;;;;;18.02;8.45;;;;;;;;;;6233556;28;20045;-60
2023/10/30 05:58:07;;;;;;;11.40;10.20;;;;;;;;;;6234346;28;20057;-60
2023/10/30 06:01:09;;;;;;;10.30;8.07;;;;;;;;;;6228009;28;20060;-61
2023/10/30 06:04:12;;;;;;;10.98;8.07;;;;;;;;;;6230198;28;20056;-61
2023/10/30 06:07:14;;;;;;;12.25;7.72;;;;;;;;;;6229082;28;20037;-61
2023/10/30 06:10:19;;;;;;;9.00;6.25;;;;;;;;;;6225823;28;20499;-61
2023/10/30 06:13:21;;;;;;;10.55;8.27;;;;;;;;;;6229298;28;20114;-61
2023/10/30 06:16:23;;;;;;;10.90;8.48;;;;;;;;;;6218712;28;20086;-66
2023/10/30 06:19:26;;;;;;;10.30;8.50;;;;;;;;;;6231467;28;20045;-65
2023/10/30 06:22:28;;;;;;;8.20;7.13;;;;;;;;;;6232283;28;20541;-64
2023/10/30 06:25:37;;;;;;;9.52;8.48;;;;;;;;;;6232763;28;20045;-62
2023/10/30 06:28:40;;;;;;;16.48;8.15;;;;;;;;;;6231065;28;20729;-63
2023/10/30 06:31:42;;;;;;;12.55;7.45;;;;;;;;;;6230602;28;20049;-67
2023/10/30 06:34:44;;;;;;;9.40;7.68;;;;;;;;;;6230424;28;20183;-68
2023/10/30 06:37:46;;;;;;;11.93;8.35;;;;;;;;;;6233640;28;20046;-68
2023/10/30 06:40:49;;;;;;;11.63;4.57;;;;;;;;;;6227859;28;20777;-68
2023/10/30 06:43:51;;;;;;;8.68;7.57;;;;;;;;;;6225056;28;20045;-68
2023/10/30 06:46:55;;;;;;;9.43;7.43;;;;;;;;;;6232688;28;20060;-67
2023/10/30 06:49:59;;;;;;;10.20;8.98;;;;;;;;;;6230470;28;20077;-67
2023/10/30 06:53:01;;;;;;;10.27;8.45;;;;;;;;;;6232047;28;20683;-67
2023/10/30 06:56:03;;;;;;;19.88;9.48;;;;;;;;;;6234571;28;21347;-66
2023/10/30 06:59:06;;;;;;;11.93;10.82;;;;;;;;;;6235308;28;20045;-65
2023/10/30 07:02:11;;;;;;;13.32;9.85;;;;;;;;;;6229330;28;20060;-68
2023/10/30 07:05:13;;;;;;;14.57;8.70;;;;;;;;;;6232282;28;20042;-61
2023/10/30 07:08:15;;;;;;;13.55;10.27;;;;;;;;;;6234763;28;20053;-64
2023/10/30 07:11:17;;;;;;;10.63;8.63;;;;;;;;;;6232613;28;20057;-64
2023/10/30 07:14:21;;;;;;;10.45;8.52;;;;;;;;;;6233034;28;20049;-65
2023/10/30 07:17:23;;;;;;;11.50;8.35;;;;;;;;;;6236821;28;20068;-63
2023/10/30 07:20:25;;;;;;;11.55;7.35;;;;;;;;;;6238289;28;20842;-64
2023/10/30 07:23:27;;;;;;;11.93;7.68;;;;;;;;;;6237893;28;20049;-65
2023/10/30 07:26:29;;;;;;;11.82;9.07;;;;;;;;;;6238851;28;20041;-64
2023/10/30 07:29:31;;;;;;;12.23;8.10;;;;;;;;;;6236956;28;20042;-64
2023/10/30 07:32:34;;;;;;;15.27;8.35;;;;;;;;;;6237730;28;20811;-65
2023/10/30 07:35:36;;;;;;;11.05;8.05;;;;;;;;;;6239165;28;20045;-64
2023/10/30 07:38:38;;;;;;;9.55;7.55;;;;;;;;;;6238500;28;20049;-65
2023/10/30 07:41:40;;;;;;;11.60;8.60;;;;;;;;;;6235317;28;20605;-65
2023/10/30 07:44:44;;;;;;;12.13;9.43;;;;;;;;;;6236945;28;20064;-64
2023/10/30 07:47:46;;;;;;;10.38;7.15;;;;;;;;;;6238599;28;20041;-65
2023/10/30 07:50:48;;;;;;;10.38;6.72;;;;;;;;;;6234294;28;20057;-65
2023/10/30 07:53:50;;;;;;;10.48;9.38;;;;;;;;;;6238341;28;20049;-64
2023/10/30 07:56:52;;;;;;;10.20;7.78;;;;;;;;;;6236924;28;20103;-64
2023/10/30 07:59:53;;;;;;;10.38;7.63;;;;;;;;;;6233704;28;20065;-64
2023/10/30 08:02:55;;;;;;;10.10;7.05;;;;;;;;;;6229149;28;20050;-65
2023/10/30 08:05:59;;;;;;;11.25;7.90;;;;;;;;;;6235444;28;20048;-65
2023/10/30 08:09:01;;;;;;;10.55;7.20;;;;;;;;;;6233812;28;20050;-65
2023/10/30 08:12:04;;;;;;;11.20;6.55;;;;;;;;;;6238190;28;20915;-65
2023/10/30 08:15:07;;;;;;;10.90;7.25;;;;;;;;;;6234789;28;20050;-65
2023/10/30 08:18:09;;;;;;;9.15;7.60;;;;;;;;;;6238711;28;20132;-65
2023/10/30 08:21:11;;;;;;;11.32;6.63;;;;;;;;;;6239346;28;20049;-64
2023/10/30 08:24:13;;;;;;;8.68;6.95;;;;;;;;;;6237694;28;20518;-61
2023/10/30 08:27:15;;;;;;;12.00;7.22;;;;;;;;;;6236253;28;20081;-60
2023/10/30 08:30:17;;;;;;;11.73;7.32;;;;;;;;;;6208361;28;20057;-61
2023/10/30 08:33:19;;;;;;;9.90;6.57;;;;;;;;;;6213828;28;20127;-61
2023/10/30 08:36:22;;;;;;;12.68;6.55;;;;;;;;;;6230099;28;20826;-60
2023/10/30 08:39:24;;;;;;;10.65;6.85;;;;;;;;;;6236246;28;20045;-63
2023/10/30 08:42:26;;;;;;;19.50;7.90;;;;;;;;;;6220252;28;20057;-63
2023/10/30 08:45:28;;;;;;;16.08;10.40;;;;;;;;;;6225404;28;20764;-63
2023/10/30 08:48:30;;;;;;;15.73;10.23;;;;;;;;;;6234950;28;20126;-64
2023/10/30 08:51:41;;;;;;;16.20;10.40;;;;;;;;;;6229260;28;20049;-65
2023/10/30 08:55:02;;;;;;;10.88;5.55;;;;;;;;;;6227812;28;20042;-63
2023/10/30 08:58:04;;;;;;;12.45;6.78;;;;;;;;;;6228585;28;20080;-64
2023/10/30 09:01:06;;;;;;;14.05;7.10;;;;;;;;;;6232426;28;20434;-64
2023/10/30 09:04:08;;;;;;;9.60;6.75;;;;;;;;;;6232860;28;20107;-63
2023/10/30 09:07:11;;;;;;;9.30;4.82;;;;;;;;;;6232736;28;20049;-63
2023/10/30 09:10:13;;;;;;;9.88;6.00;;;;;;;;;;6230691;28;20088;-71
2023/10/30 09:13:15;;;;;;;12.20;5.45;;;;;;;;;;6236469;28;20106;-71
2023/10/30 09:16:17;;;;;;;9.70;6.18;;;;;;;;;;6228734;28;20034;-71
2023/10/30 09:19:19;;;;;;;10.60;5.53;;;;;;;;;;6234989;28;20069;-71
2023/10/30 09:22:21;;;;;;;12.93;4.03;;;;;;;;;;6233541;28;20122;-70
2023/10/30 09:25:23;;;;;;;9.38;3.15;;;;;;;;;;6237323;28;20556;-71
2023/10/30 09:28:25;;;;;;;9.63;5.20;;;;;;;;;;6235783;28;20049;-71
2023/10/30 09:31:30;;;;;;;7.72;3.08;;;;;;;;;;6235845;28;20053;-71
2023/10/30 09:34:34;;;;;;;8.73;3.60;;;;;;;;;;6236038;28;20041;-71
2023/10/30 09:37:37;;;;;;;8.38;3.15;;;;;;;;;;6235053;28;20577;-71
2023/10/30 09:40:39;;;;;;;9.98;6.00;;;;;;;;;;6216974;28;20053;-70
2023/10/30 09:43:41;;;;;;;6.28;3.63;;;;;;;;;;6234898;28;20764;-70
2023/10/30 09:46:45;;;;;;;8.93;5.43;;;;;;;;;;6213369;28;20289;-71
2023/10/30 09:49:48;;;;;;;9.85;4.65;;;;;;;;;;6234731;28;20485;-70
2023/10/30 09:52:54;;;;;;;10.63;4.57;;;;;;;;;;6232077;28;20729;-70
2023/10/30 09:55:56;;;;;;;10.32;6.35;;;;;;;;;;6237270;28;20033;-70
2023/10/30 09:58:59;;;;;;;6.97;2.85;;;;;;;;;;6215106;28;20053;-71
2023/10/30 10:02:01;;;;;;;8.52;3.20;;;;;;;;;;6217354;28;20046;-71
2023/10/30 10:05:05;;;;;;;6.28;3.08;;;;;;;;;;6237065;28;20635;-72
2023/10/30 10:08:08;;;;;;;6.65;4.45;;;;;;;;;;6237506;28;20049;-70
2023/10/30 10:11:10;;;;;;;6.20;3.10;;;;;;;;;;6237510;28;20080;-70
2023/10/30 10:14:14;;;;;;;8.85;3.97;;;;;;;;;;6218901;28;20566;-71
2023/10/30 10:17:16;;;;;;;6.03;3.85;;;;;;;;;;6237437;28;20052;-71
2023/10/30 10:20:21;;;;;;;4.68;2.30;;;;;;;;;;6234950;28;20049;-71
2023/10/30 10:23:24;;;;;;;7.35;2.70;;;;;;;;;;6237131;28;20053;-71
2023/10/30 10:26:29;;;;;;;8.00;2.78;;;;;;;;;;6217046;28;20056;-71
2023/10/30 10:29:32;;;;;;;4.97;2.17;;;;;;;;;;6236917;28;20045;-71
2023/10/30 10:32:37;;;;;;;5.85;2.25;;;;;;;;;;6236381;28;20041;-70
2023/10/30 10:35:42;;;;;;;6.90;2.58;;;;;;;;;;6236395;28;20057;-71
2023/10/30 10:38:57;;;;;;;5.20;1.55;;;;;;;;;;6229819;28;20102;-70
2023/10/30 10:42:02;;;;;;;4.85;2.05;;;;;;;;;;6234113;28;20492;-71
2023/10/30 10:45:05;;;;;;;8.88;2.13;;;;;;;;;;6236087;28;20052;-70
2023/10/30 10:48:09;;;;;;;6.45;3.80;;;;;;;;;;6218405;28;20061;-71
2023/10/30 10:51:13;;;;;;;9.20;2.42;;;;;;;;;;6236580;28;20140;-70
2023/10/30 10:54:27;;;;;;;4.68;2.08;;;;;;;;;;6219124;28;20053;-70
2023/10/30 10:57:39;;;;;;;6.93;1.88;;;;;;;;;;6218608;28;20096;-71
2023/10/30 11:00:46;;;;;;;5.80;1.75;;;;;;;;;;6235976;28;20581;-71
2023/10/30 11:03:48;;;;;;;6.60;3.53;;;;;;;;;;6218818;28;20053;-71
2023/10/30 11:06:57;;;;;;;5.63;3.03;;;;;;;;;;6235171;28;20576;-71
2023/10/30 11:10:03;;;;;;;4.78;2.65;;;;;;;;;;6231326;28;20038;-71
2023/10/30 11:13:28;;;;;;;3.72;2.55;;;;;;;;;;6225662;28;20112;-71
2023/10/30 11:16:51;;;;;;;3.90;2.80;;;;;;;;;;6236099;28;20755;-71
2023/10/30 11:20:09;;;;;;;3.55;2.40;;;;;;;;;;6235114;28;20042;-70
2023/10/30 11:23:12;;;;;;;4.20;2.72;;;;;;;;;;6228614;28;20045;-71
2023/10/30 11:26:29;;;;;;;6.93;2.28;;;;;;;;;;6234013;28;20041;-72
2023/10/30 11:29:54;;;;;;;3.80;2.55;;;;;;;;;;6235372;28;20131;-72
2023/10/30 11:32:57;;;;;;;4.25;1.63;;;;;;;;;;6235481;28;20416;-72
2023/10/30 11:36:14;;;;;;;7.63;2.33;;;;;;;;;;6217617;28;20053;-70
2023/10/30 11:39:20;;;;;;;4.15;2.13;;;;;;;;;;6235329;28;20518;-71
2023/10/30 11:42:22;;;;;;;5.68;2.55;;;;;;;;;;6216116;28;20049;-71
2023/10/30 11:45:26;;;;;;;5.65;2.78;;;;;;;;;;6235411;28;20053;-70
2023/10/30 11:48:30;;;;;;;4.90;3.35;;;;;;;;;;6235605;28;20117;-71
2023/10/30 11:51:32;;;;;;;4.18;2.03;;;;;;;;;;6231346;28;20057;-71
2023/10/30 11:54:35;;;;;;;7.40;2.45;;;;;;;;;;6211072;28;20175;-72
2023/10/30 11:57:37;;;;;;;5.25;2.28;;;;;;;;;;6235593;28;20037;-71
2023/10/30 12:00:44;;;;;;;4.47;1.10;;;;;;;;;;6236219;28;20080;-71
2023/10/30 12:03:48;;;;;;;4.60;2.38;;;;;;;;;;6240219;28;20046;-72
2023/10/30 12:06:50;;;;;;;5.53;2.85;;;;;;;;;;6236962;28;20079;-72
2023/10/30 12:09:54;;;;;;;4.70;2.35;;;;;;;;;;6233710;28;20255;-72
2023/10/30 12:12:56;;;;;;;6.45;2.58;;;;;;;;;;6215825;28;20088;-72
2023/10/30 12:15:58;;;;;;;6.07;2.10;;;;;;;;;;6230655;28;20419;-72
2023/10/30 12:19:02;;;;;;;6.38;2.45;;;;;;;;;;6233079;28;20134;-72
2023/10/30 12:22:04;;;;;;;5.47;2.72;;;;;;;;;;6228664;28;20050;-71
2023/10/30 12:25:07;;;;;;;6.30;2.45;;;;;;;;;;6235896;28;20042;-72
2023/10/30 12:28:09;;;;;;;5.88;1.95;;;;;;;;;;6249507;28;20548;-72
2023/10/30 12:31:22;;;;;;;3.97;1.15;;;;;;;;;;6237821;28;20476;-71
2023/10/30 12:34:25;;;;;;;13.45;2.85;;;;;;;;;;6234760;28;20045;-71
2023/10/30 12:37:27;;;;;;;6.75;2.38;;;;;;;;;;6236149;28;20060;-71
2023/10/30 12:40:29;;;;;;;5.00;2.55;;;;;;;;;;6237047;28;20151;-71
2023/10/30 12:43:34;;;;;;;5.15;1.98;;;;;;;;;;6231166;28;20833;-72
2023/10/30 12:46:36;;;;;;;6.88;2.22;;;;;;;;;;6214742;28;20041;-72
2023/10/30 12:49:38;;;;;;;5.75;2.38;;;;;;;;;;6237213;28;20132;-71
2023/10/30 12:52:41;;;;;;;6.55;3.22;;;;;;;;;;6232823;28;20052;-71
2023/10/30 12:55:43;;;;;;;6.00;1.70;;;;;;;;;;6237488;28;20732;-72
2023/10/30 12:58:45;;;;;;;8.07;1.83;;;;;;;;;;6237312;28;20159;-71
2023/10/30 13:01:47;;;;;;;9.82;2.30;;;;;;;;;;6232736;28;20068;-71
2023/10/30 13:04:59;;;;;;;9.80;3.17;;;;;;;;;;6222208;28;20062;-71
2023/10/30 13:08:02;;;;;;;12.80;2.65;;;;;;;;;;6237569;28;20625;-71
2023/10/30 13:11:04;;;;;;;9.25;2.72;;;;;;;;;;6231994;28;20057;-70
2023/10/30 13:14:06;;;;;;;7.95;1.35;;;;;;;;;;6234918;28;20064;-70
2023/10/30 13:17:08;;;;;;;7.97;1.98;;;;;;;;;;6236184;28;20081;-70
2023/10/30 13:20:13;;;;;;;10.40;3.30;;;;;;;;;;6218557;28;20049;-72
2023/10/30 13:23:21;;;;;;;5.40;2.53;;;;;;;;;;6235225;28;20053;-71
2023/10/30 13:26:28;;;;;;;8.73;2.75;;;;;;;;;;6232708;28;20584;-70
2023/10/30 13:29:31;;;;;;;7.75;3.25;;;;;;;;;;6236752;28;20107;-69
2023/10/30 13:32:33;;;;;;;5.15;2.10;;;;;;;;;;6233446;28;20065;-71
2023/10/30 13:35:37;;;;;;;8.75;2.80;;;;;;;;;;6237606;28;20049;-71
2023/10/30 13:38:46;;;;;;;;;;;;;;;;;;6237297;28;20052;-71
2023/10/30 13:41:50;;;;;;;6.22;2.35;;;;;;;;;;6234872;28;19924;-71
2023/10/30 13:44:52;;;;;;;7.65;2.92;;;;;;;;;;6233082;28;20059;-71
2023/10/30 13:47:55;;;;;;;10.20;3.47;;;;;;;;;;6237690;28;20047;-70
2023/10/30 13:50:58;;;;;;;7.28;2.33;;;;;;;;;;6234090;28;20057;-71
2023/10/30 13:54:00;;;;;;;12.63;2.08;;;;;;;;;;6234580;28;21283;-71
2023/10/30 13:57:02;;;;;;;6.03;2.38;;;;;;;;;;6229874;28;20084;-71
2023/10/30 14:00:09;;;;;;;5.53;3.40;;;;;;;;;;6238153;28;20053;-70
2023/10/30 14:03:11;;;;;;;6.45;2.45;;;;;;;;;;6218976;28;20084;-71
2023/10/30 14:06:14;;;;;;;6.88;2.47;;;;;;;;;;6232379;28;20053;-71
2023/10/30 14:09:18;;;;;;;5.82;2.33;;;;;;;;;;6219018;28;20122;-70
2023/10/30 14:12:21;;;;;;;6.38;2.10;;;;;;;;;;6216318;28;20084;-71
2023/10/30 14:15:28;;;;;;;6.05;3.75;;;;;;;;;;6233218;28;20053;-70
2023/10/30 14:18:32;;;;;;;4.57;2.03;;;;;;;;;;6236503;28;20038;-71
2023/10/30 14:21:34;;;;;;;5.15;2.58;;;;;;;;;;6238056;28;20049;-71
2023/10/30 14:24:44;;;;;;;6.72;1.40;;;;;;;;;;6213347;28;20571;-70
2023/10/30 14:27:49;;;;;;;6.20;2.00;;;;;;;;;;6236879;28;20041;-71
2023/10/30 14:30:51;;;;;;;6.07;3.28;;;;;;;;;;6228471;28;20160;-62
2023/10/30 14:33:53;;;;;;;6.97;2.60;;;;;;;;;;6231703;28;20042;-72
2023/10/30 14:36:56;;;;;;;7.43;2.67;;;;;;;;;;6232873;28;20052;-62
2023/10/30 14:39:58;;;;;;;7.05;2.83;;;;;;;;;;6222842;28;20072;-63
2023/10/30 14:43:03;;;;;;;5.50;2.08;;;;;;;;;;6234386;28;20046;-62
2023/10/30 14:46:06;;;;;;;5.53;2.22;;;;;;;;;;6235382;28;20710;-62
2023/10/30 14:49:08;;;;;;;6.07;2.72;;;;;;;;;;6233923;28;20537;-62
2023/10/30 14:52:10;;;;;;;5.85;1.60;;;;;;;;;;6235853;28;20531;-62
2023/10/30 14:55:13;;;;;;;7.10;2.30;;;;;;;;;;6217125;28;20054;-63
2023/10/30 14:58:16;;;;;;;5.55;2.92;;;;;;;;;;6229579;28;20050;-62
2023/10/30 15:01:18;;;;;;;7.32;2.42;;;;;;;;;;6234978;28;20053;-61
2023/10/30 15:04:20;;;;;;;7.57;3.42;;;;;;;;;;6233233;28;20057;-62
2023/10/30 15:07:22;;;;;;;11.40;3.10;;;;;;;;;;6231550;28;20037;-63
2023/10/30 15:10:27;;;;;;;10.95;5.03;;;;;;;;;;6232865;28;20052;-62
2023/10/30 15:13:29;;;;;;;;;;;;;;;;;;6233010;28;20081;-62
2023/10/30 15:16:31;;;;;;;12.05;4.35;;;;;;;;;;6235656;28;20484;-61
2023/10/30 15:19:33;;;;;;;8.10;4.20;;;;;;;;;;6215744;28;20037;-61
2023/10/30 15:22:35;;;;;;;8.23;3.53;;;;;;;;;;6230076;28;20077;-60
2023/10/30 15:25:37;;;;;;;11.23;6.38;;;;;;;;;;6233485;28;20128;-61
2023/10/30 15:28:39;;;;;;;8.90;2.70;;;;;;;;;;6229378;28;20603;-62
2023/10/30 15:31:42;;;;;;;12.55;2.95;;;;;;;;;;6220504;28;20069;-62
2023/10/30 15:34:44;;;;;;;15.73;3.90;;;;;;;;;;6230604;28;20060;-62
2023/10/30 15:37:46;;;;;;;9.50;2.97;;;;;;;;;;6238030;28;20223;-61
2023/10/30 15:40:49;;;;;;;11.20;3.88;;;;;;;;;;6239691;28;20052;-62
2023/10/30 15:43:51;;;;;;;14.35;4.35;;;;;;;;;;6238229;28;20143;-62
2023/10/30 15:46:53;;;;;;;8.07;3.72;;;;;;;;;;6240651;28;20049;-62
2023/10/30 15:50:07;;;;;;;11.05;4.03;;;;;;;;;;6239578;28;20768;-60
2023/10/30 15:53:10;;;;;;;27.27;10.00;;;;;;;;;;6240224;28;20215;-61
2023/10/30 15:56:17;;;;;;;32.38;10.40;;;;;;;;;;6240094;28;20037;-60
2023/10/30 15:59:24;;;;;;;16.75;6.22;;;;;;;;;;6236665;28;20897;-61
2023/10/30 16:02:26;;;;;;;18.35;7.32;;;;;;;;;;6235325;28;20049;-61
2023/10/30 16:05:31;;;;;;;37.17;12.82;;;;;;;;;;6237005;28;20041;-62
2023/10/30 16:08:53;;;;;;;32.88;11.55;;;;;;;;;;6235679;28;20103;-62
2023/10/30 16:11:55;;;;;;;17.50;6.63;;;;;;;;;;6239415;28;20095;-61
2023/10/30 16:15:15;;;;;;;16.73;6.97;;;;;;;;;;6234645;28;20049;-61
2023/10/30 16:18:18;;;;;;;14.65;5.13;;;;;;;;;;6239815;28;20715;-61
2023/10/30 16:21:24;;;;;;;6.05;2.85;;;;;;;;;;6237419;28;20054;-61
2023/10/30 16:24:27;;;;;;;10.25;2.53;;;;;;;;;;6232325;28;20060;-61
2023/10/30 16:27:29;;;;;;;4.68;1.77;;;;;;;;;;6238109;28;20061;-66
2023/10/30 16:30:31;;;;;;;9.18;3.80;;;;;;;;;;6235317;28;20057;-64
2023/10/30 16:33:33;;;;;;;6.45;4.75;;;;;;;;;;6238413;28;20076;-73
2023/10/30 16:36:39;;;;;;;10.90;4.80;;;;;;;;;;6236539;28;20120;-72
2023/10/30 16:39:41;;;;;;;8.27;4.47;;;;;;;;;;6214485;28;20041;-72
2023/10/30 16:42:43;;;;;;;8.90;4.05;;;;;;;;;;6230401;28;20053;-71
2023/10/30 16:45:45;;;;;;;11.45;5.68;;;;;;;;;;6233629;28;20119;-72
2023/10/30 16:48:47;;;;;;;10.75;7.75;;;;;;;;;;6218176;28;20052;-72
2023/10/30 16:51:49;;;;;;;6.97;4.57;;;;;;;;;;6232545;28;20037;-76
2023/10/30 16:54:51;;;;;;;7.63;3.00;;;;;;;;;;6237891;28;20165;-76
2023/10/30 16:57:53;;;;;;;9.32;4.80;;;;;;;;;;6220957;28;20049;-75
2023/10/30 17:00:55;;;;;;;11.38;4.25;;;;;;;;;;6217489;28;20041;-73
2023/10/30 17:03:58;;;;;;;9.18;3.83;;;;;;;;;;6234108;28;20041;-72
2023/10/30 17:07:00;;;;;;;9.85;4.60;;;;;;;;;;6226819;28;20045;-72
2023/10/30 17:10:04;;;;;;;8.80;2.58;;;;;;;;;;6206556;28;20038;-72
2023/10/30 17:13:08;;;;;;;6.35;4.03;;;;;;;;;;6229976;28;20243;-71
2023/10/30 17:16:10;;;;;;;8.80;5.40;;;;;;;;;;6230829;28;20537;-72
2023/10/30 17:19:15;;;;;;;7.43;4.90;;;;;;;;;;6228535;28;20050;-72
2023/10/30 17:22:17;;;;;;;6.45;4.32;;;;;;;;;;6207144;28;20038;-72
2023/10/30 17:25:20;;;;;;;10.32;5.00;;;;;;;;;;6224480;28;20053;-72
2023/10/30 17:28:22;;;;;;;8.52;5.13;;;;;;;;;;6212969;28;20110;-72
2023/10/30 17:31:24;;;;;;;8.32;3.05;;;;;;;;;;6225509;28;20091;-72
2023/10/30 17:34:27;;;;;;;14.55;4.68;;;;;;;;;;6234419;28;20445;-73
2023/10/30 17:37:29;;;;;;;6.50;5.05;;;;;;;;;;6217589;28;20093;-73
2023/10/30 17:40:32;;;;;;;9.85;7.82;;;;;;;;;;6227602;28;20046;-71
2023/10/30 17:43:34;;;;;;;12.52;7.07;;;;;;;;;;6236654;28;20058;-73
2023/10/30 17:46:36;;;;;;;9.00;6.45;;;;;;;;;;6213212;28;20034;-72
2023/10/30 17:49:39;;;;;;;8.57;5.95;;;;;;;;;;6216644;28;20053;-72
2023/10/30 17:52:41;;;;;;;10.10;5.70;;;;;;;;;;6228557;28;20054;-72
2023/10/30 17:55:47;;;;;;;11.27;6.63;;;;;;;;;;6234121;28;20037;-72
2023/10/30 17:58:49;;;;;;;14.30;7.47;;;;;;;;;;6217881;28;20092;-68
2023/10/30 18:01:51;;;;;;;12.70;6.75;;;;;;;;;;6229375;28;20053;-68
2023/10/30 18:04:53;;;;;;;11.27;7.18;;;;;;;;;;6226890;28;20801;-68
2023/10/30 18:07:55;;;;;;;10.52;4.45;;;;;;;;;;6233721;28;20097;-67
2023/10/30 18:10:57;;;;;;;10.77;6.22;;;;;;;;;;6232093;28;20046;-67
2023/10/30 18:14:01;;;;;;;8.45;5.40;;;;;;;;;;6218021;28;20057;-68